sensor_id;sensor_type;location;lat;lon;timestamp;temperature;humidity
30150;DHT22;16962;48.646;9.026;2023-06-26T00:00:28;17.50;1.00
30150;DHT22;16962;48.646;9.026;2023-06-26T00:03:16;17.50;1.00
30150;DHT22;16962;48.646;9.026;2023-06-26T00:06:03;17.40;1.00
30150;DHT22;16962;48.646;9.026;2023-06-26T00:08:53;17.40;1.00
30150;DHT22;16962;48.646;9.026;2023-06-26T00:11:42;17.30;1.00
30150;DHT22;16962;48.646;9.026;2023-06-26T00:14:29;17.20;1.00
30150;DHT22;16962;48.646;9.026;2023-06-26T00:17:18;17.10;1.00
30150;DHT22;16962;48.646;9.026;2023-06-26T00:20:06;17.00;1.00
30150;DHT22;16962;48.646;9.026;2023-06-26T00:22:55;17.00;1.00
30150;DHT22;16962;48.646;9.026;2023-06-26T00:25:46;16.90;1.00
30150;DHT22;16962;48.646;9.026;2023-06-26T00:28:36;16.90;1.30
30150;DHT22;16962;48.646;9.026;2023-06-26T00:31:23;16.80;1.00
30150;DHT22;16962;48.646;9.026;2023-06-26T00:34:11;16.90;1.00
30150;DHT22;16962;48.646;9.026;2023-06-26T00:37:01;17.00;1.00
30150;DHT22;16962;48.646;9.026;2023-06-26T00:39:48;16.90;1.00
30150;DHT22;16962;48.646;9.026;2023-06-26T00:42:38;16.90;1.00
30150;DHT22;16962;48.646;9.026;2023-06-26T00:45:27;16.80;6.00
30150;DHT22;16962;48.646;9.026;2023-06-26T00:48:30;16.80;23.40
30150;DHT22;16962;48.646;9.026;2023-06-26T00:51:31;16.80;19.80
30150;DHT22;16962;48.646;9.026;2023-06-26T00:54:20;16.80;19.50
30150;DHT22;16962;48.646;9.026;2023-06-26T00:57:10;16.70;33.10
30150;DHT22;16962;48.646;9.026;2023-06-26T00:59:58;16.70;45.20
30150;DHT22;16962;48.646;9.026;2023-06-26T01:02:46;16.60;56.10
30150;DHT22;16962;48.646;9.026;2023-06-26T01:05:35;16.60;56.00
30150;DHT22;16962;48.646;9.026;2023-06-26T01:08:23;16.70;29.80
30150;DHT22;16962;48.646;9.026;2023-06-26T01:11:13;16.80;26.40
30150;DHT22;16962;48.646;9.026;2023-06-26T01:14:01;16.70;23.20
30150;DHT22;16962;48.646;9.026;2023-06-26T01:16:50;16.80;21.50
30150;DHT22;16962;48.646;9.026;2023-06-26T01:19:41;16.90;17.30
30150;DHT22;16962;48.646;9.026;2023-06-26T01:25:52;17.10;12.60
30150;DHT22;16962;48.646;9.026;2023-06-26T01:28:43;17.10;8.70
30150;DHT22;16962;48.646;9.026;2023-06-26T01:31:31;17.20;3.60
30150;DHT22;16962;48.646;9.026;2023-06-26T01:34:20;17.20;3.00
30150;DHT22;16962;48.646;9.026;2023-06-26T01:37:08;17.10;1.40
30150;DHT22;16962;48.646;9.026;2023-06-26T01:40:19;17.10;1.80
30150;DHT22;16962;48.646;9.026;2023-06-26T01:43:30;17.20;1.00
30150;DHT22;16962;48.646;9.026;2023-06-26T01:50:02;17.30;1.00
30150;DHT22;16962;48.646;9.026;2023-06-26T01:53:18;17.20;1.00
30150;DHT22;16962;48.646;9.026;2023-06-26T01:56:10;17.30;1.00
30150;DHT22;16962;48.646;9.026;2023-06-26T01:59:01;17.30;1.00
30150;DHT22;16962;48.646;9.026;2023-06-26T02:01:54;17.50;1.00
30150;DHT22;16962;48.646;9.026;2023-06-26T02:04:44;17.60;1.00
30150;DHT22;16962;48.646;9.026;2023-06-26T02:07:36;17.70;1.00
30150;DHT22;16962;48.646;9.026;2023-06-26T02:10:23;17.60;1.00
30150;DHT22;16962;48.646;9.026;2023-06-26T02:13:11;17.70;1.00
30150;DHT22;16962;48.646;9.026;2023-06-26T02:15:58;17.60;1.00
30150;DHT22;16962;48.646;9.026;2023-06-26T02:18:47;17.70;1.00
30150;DHT22;16962;48.646;9.026;2023-06-26T02:21:35;17.70;1.00
30150;DHT22;16962;48.646;9.026;2023-06-26T02:24:22;17.60;1.00
30150;DHT22;16962;48.646;9.026;2023-06-26T02:27:12;17.60;1.00
30150;DHT22;16962;48.646;9.026;2023-06-26T02:30:21;17.50;1.00
30150;DHT22;16962;48.646;9.026;2023-06-26T02:33:42;17.60;1.00
30150;DHT22;16962;48.646;9.026;2023-06-26T02:36:37;17.70;1.00
30150;DHT22;16962;48.646;9.026;2023-06-26T02:39:42;17.80;1.00
30150;DHT22;16962;48.646;9.026;2023-06-26T02:42:35;17.80;1.00
30150;DHT22;16962;48.646;9.026;2023-06-26T02:45:23;18.00;1.00
30150;DHT22;16962;48.646;9.026;2023-06-26T02:48:12;18.00;1.00
30150;DHT22;16962;48.646;9.026;2023-06-26T02:51:01;18.10;1.00
30150;DHT22;16962;48.646;9.026;2023-06-26T02:53:50;18.20;1.00
30150;DHT22;16962;48.646;9.026;2023-06-26T02:56:38;18.30;1.00
30150;DHT22;16962;48.646;9.026;2023-06-26T02:59:37;18.30;1.00
30150;DHT22;16962;48.646;9.026;2023-06-26T03:02:24;18.30;1.00
30150;DHT22;16962;48.646;9.026;2023-06-26T03:05:25;18.30;1.00
30150;DHT22;16962;48.646;9.026;2023-06-26T03:08:18;18.20;1.00
30150;DHT22;16962;48.646;9.026;2023-06-26T03:11:10;18.30;1.00
30150;DHT22;16962;48.646;9.026;2023-06-26T03:14:13;18.30;1.00
30150;DHT22;16962;48.646;9.026;2023-06-26T03:17:01;18.30;1.00
30150;DHT22;16962;48.646;9.026;2023-06-26T03:19:51;18.40;1.00
30150;DHT22;16962;48.646;9.026;2023-06-26T03:22:38;18.40;1.00
30150;DHT22;16962;48.646;9.026;2023-06-26T03:25:27;18.40;1.00
30150;DHT22;16962;48.646;9.026;2023-06-26T03:28:40;18.40;1.00
30150;DHT22;16962;48.646;9.026;2023-06-26T03:31:27;18.40;1.00
30150;DHT22;16962;48.646;9.026;2023-06-26T03:34:15;18.30;1.00
30150;DHT22;16962;48.646;9.026;2023-06-26T03:37:07;18.30;1.00
30150;DHT22;16962;48.646;9.026;2023-06-26T03:39:59;18.40;1.00
30150;DHT22;16962;48.646;9.026;2023-06-26T03:42:47;18.30;1.00
30150;DHT22;16962;48.646;9.026;2023-06-26T03:45:39;18.40;1.00
30150;DHT22;16962;48.646;9.026;2023-06-26T03:48:29;18.30;1.00
30150;DHT22;16962;48.646;9.026;2023-06-26T03:51:18;18.30;1.00
30150;DHT22;16962;48.646;9.026;2023-06-26T03:54:08;18.20;1.00
30150;DHT22;16962;48.646;9.026;2023-06-26T03:56:58;18.20;1.00
30150;DHT22;16962;48.646;9.026;2023-06-26T03:59:46;18.30;1.00
30150;DHT22;16962;48.646;9.026;2023-06-26T04:06:53;18.20;1.00
30150;DHT22;16962;48.646;9.026;2023-06-26T04:10:25;18.10;1.00
30150;DHT22;16962;48.646;9.026;2023-06-26T04:13:16;18.10;1.00
30150;DHT22;16962;48.646;9.026;2023-06-26T04:16:07;18.10;1.00
30150;DHT22;16962;48.646;9.026;2023-06-26T04:18:55;18.20;1.00
30150;DHT22;16962;48.646;9.026;2023-06-26T04:21:45;18.20;1.00
30150;DHT22;16962;48.646;9.026;2023-06-26T04:24:32;18.20;1.00
30150;DHT22;16962;48.646;9.026;2023-06-26T04:27:25;18.20;1.00
30150;DHT22;16962;48.646;9.026;2023-06-26T04:30:41;18.30;1.00
30150;DHT22;16962;48.646;9.026;2023-06-26T04:33:29;18.20;1.00
30150;DHT22;16962;48.646;9.026;2023-06-26T04:37:09;18.30;1.00
30150;DHT22;16962;48.646;9.026;2023-06-26T04:40:26;18.30;1.00
30150;DHT22;16962;48.646;9.026;2023-06-26T04:43:21;18.30;1.00
30150;DHT22;16962;48.646;9.026;2023-06-26T04:46:32;18.40;1.00
30150;DHT22;16962;48.646;9.026;2023-06-26T04:49:41;18.40;1.00
30150;DHT22;16962;48.646;9.026;2023-06-26T04:52:51;18.40;1.00
30150;DHT22;16962;48.646;9.026;2023-06-26T04:55:39;18.40;1.00
30150;DHT22;16962;48.646;9.026;2023-06-26T04:58:29;18.50;1.00
30150;DHT22;16962;48.646;9.026;2023-06-26T05:01:23;18.60;1.00
30150;DHT22;16962;48.646;9.026;2023-06-26T05:04:47;18.60;1.00
30150;DHT22;16962;48.646;9.026;2023-06-26T05:07:44;18.70;1.00
30150;DHT22;16962;48.646;9.026;2023-06-26T05:10:34;18.80;1.00
30150;DHT22;16962;48.646;9.026;2023-06-26T05:13:41;18.90;1.00
30150;DHT22;16962;48.646;9.026;2023-06-26T05:16:36;18.90;1.00
30150;DHT22;16962;48.646;9.026;2023-06-26T05:19:48;19.00;1.00
30150;DHT22;16962;48.646;9.026;2023-06-26T05:22:37;19.20;1.00
30150;DHT22;16962;48.646;9.026;2023-06-26T05:25:30;19.30;1.00
30150;DHT22;16962;48.646;9.026;2023-06-26T05:28:18;19.50;1.00
30150;DHT22;16962;48.646;9.026;2023-06-26T05:31:06;19.60;1.00
30150;DHT22;16962;48.646;9.026;2023-06-26T05:34:11;19.60;1.00
30150;DHT22;16962;48.646;9.026;2023-06-26T05:37:07;19.70;1.00
30150;DHT22;16962;48.646;9.026;2023-06-26T05:40:08;19.80;1.00
30150;DHT22;16962;48.646;9.026;2023-06-26T05:43:00;20.00;1.00
30150;DHT22;16962;48.646;9.026;2023-06-26T05:45:49;20.20;1.00
30150;DHT22;16962;48.646;9.026;2023-06-26T05:48:39;20.30;1.00
30150;DHT22;16962;48.646;9.026;2023-06-26T05:51:42;20.40;1.00
30150;DHT22;16962;48.646;9.026;2023-06-26T05:54:34;20.70;1.00
30150;DHT22;16962;48.646;9.026;2023-06-26T05:57:46;20.80;1.00
30150;DHT22;16962;48.646;9.026;2023-06-26T06:00:43;21.00;1.00
30150;DHT22;16962;48.646;9.026;2023-06-26T06:03:46;21.10;1.00
30150;DHT22;16962;48.646;9.026;2023-06-26T06:06:34;21.30;1.00
30150;DHT22;16962;48.646;9.026;2023-06-26T06:09:21;21.40;1.00
30150;DHT22;16962;48.646;9.026;2023-06-26T06:12:08;21.50;1.00
30150;DHT22;16962;48.646;9.026;2023-06-26T06:14:56;21.60;1.00
30150;DHT22;16962;48.646;9.026;2023-06-26T06:17:43;21.70;1.00
30150;DHT22;16962;48.646;9.026;2023-06-26T06:20:34;21.70;1.00
30150;DHT22;16962;48.646;9.026;2023-06-26T06:24:07;21.80;1.00
30150;DHT22;16962;48.646;9.026;2023-06-26T06:27:16;21.90;1.00
30150;DHT22;16962;48.646;9.026;2023-06-26T06:30:06;22.10;1.00
30150;DHT22;16962;48.646;9.026;2023-06-26T06:36:48;22.50;1.00
30150;DHT22;16962;48.646;9.026;2023-06-26T06:40:19;22.80;1.00
30150;DHT22;16962;48.646;9.026;2023-06-26T06:43:54;23.10;1.00
30150;DHT22;16962;48.646;9.026;2023-06-26T06:47:28;23.30;1.00
30150;DHT22;16962;48.646;9.026;2023-06-26T06:50:21;23.60;1.00
30150;DHT22;16962;48.646;9.026;2023-06-26T06:53:40;23.70;1.00
30150;DHT22;16962;48.646;9.026;2023-06-26T07:00:38;24.30;1.00
30150;DHT22;16962;48.646;9.026;2023-06-26T07:03:43;24.50;1.00
30150;DHT22;16962;48.646;9.026;2023-06-26T07:06:31;24.80;1.00
30150;DHT22;16962;48.646;9.026;2023-06-26T07:09:21;24.90;1.00
30150;DHT22;16962;48.646;9.026;2023-06-26T07:12:15;25.10;1.00
30150;DHT22;16962;48.646;9.026;2023-06-26T07:15:42;25.30;1.00
30150;DHT22;16962;48.646;9.026;2023-06-26T07:19:03;25.60;1.00
30150;DHT22;16962;48.646;9.026;2023-06-26T07:21:55;26.00;1.00
30150;DHT22;16962;48.646;9.026;2023-06-26T07:24:50;26.10;1.00
30150;DHT22;16962;48.646;9.026;2023-06-26T07:27:57;26.40;1.00
30150;DHT22;16962;48.646;9.026;2023-06-26T07:30:44;26.80;1.00
30150;DHT22;16962;48.646;9.026;2023-06-26T07:33:32;27.40;1.00
30150;DHT22;16962;48.646;9.026;2023-06-26T07:36:20;27.60;1.00
30150;DHT22;16962;48.646;9.026;2023-06-26T07:40:07;27.60;1.00
30150;DHT22;16962;48.646;9.026;2023-06-26T07:50:57;29.20;1.00
30150;DHT22;16962;48.646;9.026;2023-06-26T07:53:48;29.70;1.00
30150;DHT22;16962;48.646;9.026;2023-06-26T07:56:56;30.00;1.00
30150;DHT22;16962;48.646;9.026;2023-06-26T08:00:07;29.90;1.00
30150;DHT22;16962;48.646;9.026;2023-06-26T08:03:35;30.00;1.00
30150;DHT22;16962;48.646;9.026;2023-06-26T08:06:39;30.40;1.00
30150;DHT22;16962;48.646;9.026;2023-06-26T08:13:28;29.80;1.00
30150;DHT22;16962;48.646;9.026;2023-06-26T08:16:19;30.00;1.00
30150;DHT22;16962;48.646;9.026;2023-06-26T08:19:33;29.70;1.00
30150;DHT22;16962;48.646;9.026;2023-06-26T08:22:39;30.00;1.00
30150;DHT22;16962;48.646;9.026;2023-06-26T08:26:47;30.40;1.00
30150;DHT22;16962;48.646;9.026;2023-06-26T08:30:28;30.40;1.00
30150;DHT22;16962;48.646;9.026;2023-06-26T08:33:16;31.40;1.00
30150;DHT22;16962;48.646;9.026;2023-06-26T08:36:30;31.90;1.00
30150;DHT22;16962;48.646;9.026;2023-06-26T08:39:43;31.80;1.00
30150;DHT22;16962;48.646;9.026;2023-06-26T08:43:02;31.60;42.90
30150;DHT22;16962;48.646;9.026;2023-06-26T08:46:11;31.90;41.20
30150;DHT22;16962;48.646;9.026;2023-06-26T08:49:51;32.60;40.00
30150;DHT22;16962;48.646;9.026;2023-06-26T08:56:16;33.50;37.40
30150;DHT22;16962;48.646;9.026;2023-06-26T08:59:04;33.10;36.70
30150;DHT22;16962;48.646;9.026;2023-06-26T09:02:18;32.00;38.70
30150;DHT22;16962;48.646;9.026;2023-06-26T09:05:32;31.40;40.80
30150;DHT22;16962;48.646;9.026;2023-06-26T09:08:39;31.80;40.40
30150;DHT22;16962;48.646;9.026;2023-06-26T09:11:33;31.80;39.70
30150;DHT22;16962;48.646;9.026;2023-06-26T09:14:25;31.70;39.00
30150;DHT22;16962;48.646;9.026;2023-06-26T09:17:41;31.80;37.20
30150;DHT22;16962;48.646;9.026;2023-06-26T09:21:08;31.80;37.70
30150;DHT22;16962;48.646;9.026;2023-06-26T09:24:02;32.60;36.00
30150;DHT22;16962;48.646;9.026;2023-06-26T09:26:57;32.70;34.90
30150;DHT22;16962;48.646;9.026;2023-06-26T09:29:48;33.00;35.90
30150;DHT22;16962;48.646;9.026;2023-06-26T09:32:36;34.20;33.40
30150;DHT22;16962;48.646;9.026;2023-06-26T09:35:27;34.30;32.40
30150;DHT22;16962;48.646;9.026;2023-06-26T09:38:17;34.70;33.10
30150;DHT22;16962;48.646;9.026;2023-06-26T09:41:36;33.70;33.70
30150;DHT22;16962;48.646;9.026;2023-06-26T09:44:45;32.70;35.90
30150;DHT22;16962;48.646;9.026;2023-06-26T09:48:00;33.30;35.40
30150;DHT22;16962;48.646;9.026;2023-06-26T09:51:05;34.80;34.90
30150;DHT22;16962;48.646;9.026;2023-06-26T09:54:06;35.10;33.00
30150;DHT22;16962;48.646;9.026;2023-06-26T09:57:19;35.40;31.80
30150;DHT22;16962;48.646;9.026;2023-06-26T10:00:07;34.00;32.80
30150;DHT22;16962;48.646;9.026;2023-06-26T10:02:59;33.50;32.90
30150;DHT22;16962;48.646;9.026;2023-06-26T10:05:50;33.30;32.90
30150;DHT22;16962;48.646;9.026;2023-06-26T10:08:38;33.70;33.90
30150;DHT22;16962;48.646;9.026;2023-06-26T10:11:47;34.70;32.50
30150;DHT22;16962;48.646;9.026;2023-06-26T10:14:42;35.30;31.80
30150;DHT22;16962;48.646;9.026;2023-06-26T10:17:36;35.80;31.60
30150;DHT22;16962;48.646;9.026;2023-06-26T10:20:27;36.30;33.20
30150;DHT22;16962;48.646;9.026;2023-06-26T10:23:39;36.00;30.00
30150;DHT22;16962;48.646;9.026;2023-06-26T10:26:28;34.20;32.60
30150;DHT22;16962;48.646;9.026;2023-06-26T10:29:17;33.30;33.60
30150;DHT22;16962;48.646;9.026;2023-06-26T10:32:10;33.50;34.20
30150;DHT22;16962;48.646;9.026;2023-06-26T10:34:59;34.30;34.50
30150;DHT22;16962;48.646;9.026;2023-06-26T10:37:49;35.20;31.30
30150;DHT22;16962;48.646;9.026;2023-06-26T10:40:47;35.60;30.80
30150;DHT22;16962;48.646;9.026;2023-06-26T10:44:08;36.00;33.00
30150;DHT22;16962;48.646;9.026;2023-06-26T10:47:32;36.00;32.90
30150;DHT22;16962;48.646;9.026;2023-06-26T10:50:30;36.30;33.80
30150;DHT22;16962;48.646;9.026;2023-06-26T10:56:08;34.00;36.50
30150;DHT22;16962;48.646;9.026;2023-06-26T10:59:13;33.50;37.80
30150;DHT22;16962;48.646;9.026;2023-06-26T11:02:28;34.00;37.10
30150;DHT22;16962;48.646;9.026;2023-06-26T11:05:34;34.60;36.40
30150;DHT22;16962;48.646;9.026;2023-06-26T11:08:48;34.40;36.60
30150;DHT22;16962;48.646;9.026;2023-06-26T11:14:47;34.80;36.20
30150;DHT22;16962;48.646;9.026;2023-06-26T11:17:35;35.50;35.50
30150;DHT22;16962;48.646;9.026;2023-06-26T11:20:25;35.80;34.90
30150;DHT22;16962;48.646;9.026;2023-06-26T11:23:21;35.40;33.90
30150;DHT22;16962;48.646;9.026;2023-06-26T11:26:31;35.60;33.60
30150;DHT22;16962;48.646;9.026;2023-06-26T11:29:28;35.70;33.40
30150;DHT22;16962;48.646;9.026;2023-06-26T11:32:18;35.50;34.40
30150;DHT22;16962;48.646;9.026;2023-06-26T11:35:07;35.30;33.90
30150;DHT22;16962;48.646;9.026;2023-06-26T11:38:40;34.60;34.60
30150;DHT22;16962;48.646;9.026;2023-06-26T11:41:31;34.50;34.80
30150;DHT22;16962;48.646;9.026;2023-06-26T11:44:21;34.70;34.80
30150;DHT22;16962;48.646;9.026;2023-06-26T11:47:15;35.40;34.00
30150;DHT22;16962;48.646;9.026;2023-06-26T11:50:18;35.30;35.00
30150;DHT22;16962;48.646;9.026;2023-06-26T11:53:08;34.30;37.10
30150;DHT22;16962;48.646;9.026;2023-06-26T11:55:58;34.00;37.60
30150;DHT22;16962;48.646;9.026;2023-06-26T11:59:07;34.50;37.30
30150;DHT22;16962;48.646;9.026;2023-06-26T12:02:12;35.00;35.80
30150;DHT22;16962;48.646;9.026;2023-06-26T12:05:00;34.70;37.20
30150;DHT22;16962;48.646;9.026;2023-06-26T12:07:53;34.50;36.80
30150;DHT22;16962;48.646;9.026;2023-06-26T12:10:45;34.50;37.30
30150;DHT22;16962;48.646;9.026;2023-06-26T12:13:39;34.40;37.50
30150;DHT22;16962;48.646;9.026;2023-06-26T12:16:46;35.30;37.50
30150;DHT22;16962;48.646;9.026;2023-06-26T12:19:37;36.60;34.60
30150;DHT22;16962;48.646;9.026;2023-06-26T12:22:34;37.60;33.50
30150;DHT22;16962;48.646;9.026;2023-06-26T12:25:24;37.30;32.60
30150;DHT22;16962;48.646;9.026;2023-06-26T12:28:19;35.40;36.50
30150;DHT22;16962;48.646;9.026;2023-06-26T12:31:23;34.20;38.00
30150;DHT22;16962;48.646;9.026;2023-06-26T12:34:56;34.20;38.40
30150;DHT22;16962;48.646;9.026;2023-06-26T12:37:47;34.20;38.80
30150;DHT22;16962;48.646;9.026;2023-06-26T12:40:59;35.00;37.00
30150;DHT22;16962;48.646;9.026;2023-06-26T12:43:56;34.40;38.20
30150;DHT22;16962;48.646;9.026;2023-06-26T12:46:55;34.20;39.70
30150;DHT22;16962;48.646;9.026;2023-06-26T12:50:11;34.70;37.80
30150;DHT22;16962;48.646;9.026;2023-06-26T12:53:16;34.80;37.60
30150;DHT22;16962;48.646;9.026;2023-06-26T12:56:06;34.90;37.50
30150;DHT22;16962;48.646;9.026;2023-06-26T12:59:06;33.90;40.70
30150;DHT22;16962;48.646;9.026;2023-06-26T13:01:54;34.50;39.20
30150;DHT22;16962;48.646;9.026;2023-06-26T13:04:48;35.50;37.00
30150;DHT22;16962;48.646;9.026;2023-06-26T13:07:38;35.00;37.60
30150;DHT22;16962;48.646;9.026;2023-06-26T13:10:36;33.50;38.90
30150;DHT22;16962;48.646;9.026;2023-06-26T13:13:32;33.80;40.70
30150;DHT22;16962;48.646;9.026;2023-06-26T13:16:19;33.70;39.70
30150;DHT22;16962;48.646;9.026;2023-06-26T13:19:07;34.00;38.30
30150;DHT22;16962;48.646;9.026;2023-06-26T13:21:57;33.60;39.20
30150;DHT22;16962;48.646;9.026;2023-06-26T13:24:44;34.10;38.90
30150;DHT22;16962;48.646;9.026;2023-06-26T13:27:35;34.70;37.80
30150;DHT22;16962;48.646;9.026;2023-06-26T13:30:23;34.40;37.50
30150;DHT22;16962;48.646;9.026;2023-06-26T13:33:11;34.50;38.30
30150;DHT22;16962;48.646;9.026;2023-06-26T13:36:04;34.60;37.00
30150;DHT22;16962;48.646;9.026;2023-06-26T13:38:52;35.20;36.70
30150;DHT22;16962;48.646;9.026;2023-06-26T13:41:43;35.70;35.20
30150;DHT22;16962;48.646;9.026;2023-06-26T13:44:31;36.10;33.60
30150;DHT22;16962;48.646;9.026;2023-06-26T13:47:35;35.60;34.20
30150;DHT22;16962;48.646;9.026;2023-06-26T13:50:25;33.80;37.90
30150;DHT22;16962;48.646;9.026;2023-06-26T13:53:24;34.20;37.10
30150;DHT22;16962;48.646;9.026;2023-06-26T13:56:11;34.30;36.60
30150;DHT22;16962;48.646;9.026;2023-06-26T13:58:59;34.60;36.90
30150;DHT22;16962;48.646;9.026;2023-06-26T14:01:46;34.80;35.60
30150;DHT22;16962;48.646;9.026;2023-06-26T14:04:35;34.10;35.60
30150;DHT22;16962;48.646;9.026;2023-06-26T14:07:23;34.40;36.20
30150;DHT22;16962;48.646;9.026;2023-06-26T14:10:12;35.00;34.10
30150;DHT22;16962;48.646;9.026;2023-06-26T14:13:01;34.90;33.70
30150;DHT22;16962;48.646;9.026;2023-06-26T14:15:50;34.70;33.70
30150;DHT22;16962;48.646;9.026;2023-06-26T14:18:57;34.80;34.40
30150;DHT22;16962;48.646;9.026;2023-06-26T14:21:45;34.50;33.50
30150;DHT22;16962;48.646;9.026;2023-06-26T14:24:32;34.20;33.80
30150;DHT22;16962;48.646;9.026;2023-06-26T14:27:33;34.20;34.10
30150;DHT22;16962;48.646;9.026;2023-06-26T14:30:20;33.70;34.20
30150;DHT22;16962;48.646;9.026;2023-06-26T14:33:11;33.20;36.20
30150;DHT22;16962;48.646;9.026;2023-06-26T14:35:58;34.00;35.90
30150;DHT22;16962;48.646;9.026;2023-06-26T14:38:46;34.70;33.50
30150;DHT22;16962;48.646;9.026;2023-06-26T14:41:34;33.40;35.40
30150;DHT22;16962;48.646;9.026;2023-06-26T14:44:24;33.40;35.20
30150;DHT22;16962;48.646;9.026;2023-06-26T14:47:13;33.90;33.20
30150;DHT22;16962;48.646;9.026;2023-06-26T14:50:07;33.70;33.60
30150;DHT22;16962;48.646;9.026;2023-06-26T14:52:55;33.60;34.10
30150;DHT22;16962;48.646;9.026;2023-06-26T14:55:42;33.50;34.70
30150;DHT22;16962;48.646;9.026;2023-06-26T14:58:30;34.00;33.70
30150;DHT22;16962;48.646;9.026;2023-06-26T15:01:20;33.50;34.60
30150;DHT22;16962;48.646;9.026;2023-06-26T15:04:09;33.90;34.30
30150;DHT22;16962;48.646;9.026;2023-06-26T15:06:57;34.30;33.50
30150;DHT22;16962;48.646;9.026;2023-06-26T15:09:45;34.00;33.20
30150;DHT22;16962;48.646;9.026;2023-06-26T15:12:32;33.40;34.10
30150;DHT22;16962;48.646;9.026;2023-06-26T15:15:20;32.80;35.40
30150;DHT22;16962;48.646;9.026;2023-06-26T15:18:11;32.60;36.50
30150;DHT22;16962;48.646;9.026;2023-06-26T15:20:58;32.40;35.80
30150;DHT22;16962;48.646;9.026;2023-06-26T15:23:47;32.20;37.10
30150;DHT22;16962;48.646;9.026;2023-06-26T15:26:36;32.40;36.70
30150;DHT22;16962;48.646;9.026;2023-06-26T15:29:41;32.60;37.40
30150;DHT22;16962;48.646;9.026;2023-06-26T15:32:31;33.10;35.20
30150;DHT22;16962;48.646;9.026;2023-06-26T15:35:20;33.40;35.10
30150;DHT22;16962;48.646;9.026;2023-06-26T15:38:08;33.50;34.30
30150;DHT22;16962;48.646;9.026;2023-06-26T15:41:02;32.50;35.60
30150;DHT22;16962;48.646;9.026;2023-06-26T15:43:54;31.50;37.40
30150;DHT22;16962;48.646;9.026;2023-06-26T15:46:44;30.70;39.00
30150;DHT22;16962;48.646;9.026;2023-06-26T15:49:35;30.30;39.70
30150;DHT22;16962;48.646;9.026;2023-06-26T15:52:24;30.20;40.30
30150;DHT22;16962;48.646;9.026;2023-06-26T15:55:17;30.10;41.30
30150;DHT22;16962;48.646;9.026;2023-06-26T15:58:25;29.90;40.90
30150;DHT22;16962;48.646;9.026;2023-06-26T16:01:17;29.70;41.10
30150;DHT22;16962;48.646;9.026;2023-06-26T16:04:05;29.40;42.10
30150;DHT22;16962;48.646;9.026;2023-06-26T16:06:54;29.10;41.70
30150;DHT22;16962;48.646;9.026;2023-06-26T16:09:44;28.80;43.00
30150;DHT22;16962;48.646;9.026;2023-06-26T16:12:32;28.50;42.80
30150;DHT22;16962;48.646;9.026;2023-06-26T16:15:20;28.30;43.90
30150;DHT22;16962;48.646;9.026;2023-06-26T16:18:07;28.10;44.30
30150;DHT22;16962;48.646;9.026;2023-06-26T16:20:57;27.70;44.20
30150;DHT22;16962;48.646;9.026;2023-06-26T16:23:46;27.10;45.60
30150;DHT22;16962;48.646;9.026;2023-06-26T16:26:34;27.00;45.90
30150;DHT22;16962;48.646;9.026;2023-06-26T16:29:23;26.90;46.50
30150;DHT22;16962;48.646;9.026;2023-06-26T16:32:12;26.90;46.30
30150;DHT22;16962;48.646;9.026;2023-06-26T16:34:59;26.80;45.50
30150;DHT22;16962;48.646;9.026;2023-06-26T16:37:48;26.70;45.60
30150;DHT22;16962;48.646;9.026;2023-06-26T16:40:37;26.50;46.00
30150;DHT22;16962;48.646;9.026;2023-06-26T16:43:30;26.50;45.10
30150;DHT22;16962;48.646;9.026;2023-06-26T16:46:20;26.70;45.70
30150;DHT22;16962;48.646;9.026;2023-06-26T16:49:10;26.80;44.60
30150;DHT22;16962;48.646;9.026;2023-06-26T16:52:00;27.20;44.40
30150;DHT22;16962;48.646;9.026;2023-06-26T16:54:52;27.20;42.80
30150;DHT22;16962;48.646;9.026;2023-06-26T16:57:43;27.20;42.40
30150;DHT22;16962;48.646;9.026;2023-06-26T17:00:35;27.20;41.10
30150;DHT22;16962;48.646;9.026;2023-06-26T17:03:40;26.90;41.30
30150;DHT22;16962;48.646;9.026;2023-06-26T17:06:29;26.60;41.20
30150;DHT22;16962;48.646;9.026;2023-06-26T17:09:23;26.20;40.10
30150;DHT22;16962;48.646;9.026;2023-06-26T17:12:10;25.90;40.80
30150;DHT22;16962;48.646;9.026;2023-06-26T17:14:58;25.70;40.40
30150;DHT22;16962;48.646;9.026;2023-06-26T17:17:49;25.50;41.40
30150;DHT22;16962;48.646;9.026;2023-06-26T17:20:58;25.20;41.10
30150;DHT22;16962;48.646;9.026;2023-06-26T17:23:48;25.10;41.70
30150;DHT22;16962;48.646;9.026;2023-06-26T17:26:36;25.00;42.80
30150;DHT22;16962;48.646;9.026;2023-06-26T17:29:26;25.00;42.00
30150;DHT22;16962;48.646;9.026;2023-06-26T17:32:20;25.00;43.00
30150;DHT22;16962;48.646;9.026;2023-06-26T17:35:24;24.90;42.70
30150;DHT22;16962;48.646;9.026;2023-06-26T17:38:13;25.00;42.40
30150;DHT22;16962;48.646;9.026;2023-06-26T17:41:22;24.80;41.80
30150;DHT22;16962;48.646;9.026;2023-06-26T17:44:13;24.80;41.90
30150;DHT22;16962;48.646;9.026;2023-06-26T17:47:10;24.60;41.80
30150;DHT22;16962;48.646;9.026;2023-06-26T17:49:57;24.40;41.50
30150;DHT22;16962;48.646;9.026;2023-06-26T17:52:48;24.30;41.90
30150;DHT22;16962;48.646;9.026;2023-06-26T17:55:51;24.20;42.40
30150;DHT22;16962;48.646;9.026;2023-06-26T17:58:45;24.10;42.30
30150;DHT22;16962;48.646;9.026;2023-06-26T18:01:45;23.90;42.90
30150;DHT22;16962;48.646;9.026;2023-06-26T18:04:36;23.70;42.80
30150;DHT22;16962;48.646;9.026;2023-06-26T18:07:31;23.70;43.30
30150;DHT22;16962;48.646;9.026;2023-06-26T18:10:32;23.60;43.20
30150;DHT22;16962;48.646;9.026;2023-06-26T18:13:22;23.40;43.60
30150;DHT22;16962;48.646;9.026;2023-06-26T18:16:25;23.40;44.20
30150;DHT22;16962;48.646;9.026;2023-06-26T18:19:17;23.30;44.20
30150;DHT22;16962;48.646;9.026;2023-06-26T18:22:07;23.20;44.50
30150;DHT22;16962;48.646;9.026;2023-06-26T18:25:12;23.00;45.00
30150;DHT22;16962;48.646;9.026;2023-06-26T18:28:03;22.90;45.70
30150;DHT22;16962;48.646;9.026;2023-06-26T18:35:08;22.60;46.30
30150;DHT22;16962;48.646;9.026;2023-06-26T18:37:58;22.50;46.70
30150;DHT22;16962;48.646;9.026;2023-06-26T18:40:47;22.40;46.30
30150;DHT22;16962;48.646;9.026;2023-06-26T18:43:39;22.30;46.50
30150;DHT22;16962;48.646;9.026;2023-06-26T18:46:45;22.20;47.50
30150;DHT22;16962;48.646;9.026;2023-06-26T18:49:51;22.10;47.30
30150;DHT22;16962;48.646;9.026;2023-06-26T18:52:58;22.00;46.90
30150;DHT22;16962;48.646;9.026;2023-06-26T18:55:54;21.90;46.90
30150;DHT22;16962;48.646;9.026;2023-06-26T18:58:53;21.80;47.50
30150;DHT22;16962;48.646;9.026;2023-06-26T19:01:56;21.70;47.80
30150;DHT22;16962;48.646;9.026;2023-06-26T19:04:52;21.50;48.30
30150;DHT22;16962;48.646;9.026;2023-06-26T19:07:43;21.40;49.10
30150;DHT22;16962;48.646;9.026;2023-06-26T19:10:51;21.30;48.60
30150;DHT22;16962;48.646;9.026;2023-06-26T19:14:13;21.20;48.70
30150;DHT22;16962;48.646;9.026;2023-06-26T19:17:05;21.00;49.40
30150;DHT22;16962;48.646;9.026;2023-06-26T19:19:52;20.90;49.60
30150;DHT22;16962;48.646;9.026;2023-06-26T19:22:40;20.80;49.60
30150;DHT22;16962;48.646;9.026;2023-06-26T19:25:27;20.80;49.60